sensor_id;sensor_type;location;lat;lon;timestamp;P1;durP1;ratioP1;P2;durP2;ratioP2
7531;SDS011;3807;49.030;8.714;2023-06-10T00:00:48;6.95;;;5.55;;
7531;SDS011;3807;49.030;8.714;2023-06-10T00:03:13;6.78;;;6.07;;
7531;SDS011;3807;49.030;8.714;2023-06-10T00:05:39;6.32;;;5.40;;
7531;SDS011;3807;49.030;8.714;2023-06-10T00:08:05;9.23;;;6.07;;
7531;SDS011;3807;49.030;8.714;2023-06-10T00:10:36;7.60;;;5.62;;
7531;SDS011;3807;49.030;8.714;2023-06-10T00:13:03;11.77;;;5.43;;
7531;SDS011;3807;49.030;8.714;2023-06-10T00:15:29;7.37;;;5.30;;
7531;SDS011;3807;49.030;8.714;2023-06-10T00:17:55;6.37;;;5.37;;
7531;SDS011;3807;49.030;8.714;2023-06-10T00:20:20;5.53;;;5.03;;
7531;SDS011;3807;49.030;8.714;2023-06-10T00:22:47;8.70;;;5.65;;
7531;SDS011;3807;49.030;8.714;2023-06-10T00:25:13;6.55;;;5.87;;
7531;SDS011;3807;49.030;8.714;2023-06-10T00:27:39;7.15;;;5.40;;
7531;SDS011;3807;49.030;8.714;2023-06-10T00:30:04;8.50;;;5.12;;
7531;SDS011;3807;49.030;8.714;2023-06-10T00:32:32;6.00;;;5.32;;
7531;SDS011;3807;49.030;8.714;2023-06-10T00:34:58;8.32;;;5.12;;
7531;SDS011;3807;49.030;8.714;2023-06-10T00:37:23;7.68;;;5.60;;
7531;SDS011;3807;49.030;8.714;2023-06-10T00:39:49;7.05;;;5.62;;
7531;SDS011;3807;49.030;8.714;2023-06-10T00:42:14;6.57;;;5.47;;
7531;SDS011;3807;49.030;8.714;2023-06-10T00:44:39;6.22;;;5.22;;
7531;SDS011;3807;49.030;8.714;2023-06-10T00:47:05;6.15;;;5.55;;
7531;SDS011;3807;49.030;8.714;2023-06-10T00:49:31;10.07;;;5.60;;
7531;SDS011;3807;49.030;8.714;2023-06-10T00:51:57;8.68;;;5.70;;
7531;SDS011;3807;49.030;8.714;2023-06-10T00:54:23;6.12;;;5.43;;
7531;SDS011;3807;49.030;8.714;2023-06-10T00:56:48;6.68;;;5.20;;
7531;SDS011;3807;49.030;8.714;2023-06-10T00:59:14;7.50;;;5.43;;
7531;SDS011;3807;49.030;8.714;2023-06-10T01:01:41;6.35;;;5.22;;
7531;SDS011;3807;49.030;8.714;2023-06-10T01:04:08;6.25;;;5.25;;
7531;SDS011;3807;49.030;8.714;2023-06-10T01:06:41;7.25;;;5.10;;
7531;SDS011;3807;49.030;8.714;2023-06-10T01:11:41;7.35;;;5.07;;
7531;SDS011;3807;49.030;8.714;2023-06-10T01:14:19;6.37;;;5.57;;
7531;SDS011;3807;49.030;8.714;2023-06-10T01:16:45;8.02;;;6.03;;
7531;SDS011;3807;49.030;8.714;2023-06-10T01:19:11;6.70;;;5.53;;
7531;SDS011;3807;49.030;8.714;2023-06-10T01:21:38;6.35;;;5.50;;
7531;SDS011;3807;49.030;8.714;2023-06-10T01:24:04;6.55;;;5.43;;
7531;SDS011;3807;49.030;8.714;2023-06-10T01:26:33;7.32;;;6.12;;
7531;SDS011;3807;49.030;8.714;2023-06-10T01:34:17;10.05;;;5.50;;
7531;SDS011;3807;49.030;8.714;2023-06-10T01:36:44;8.43;;;5.68;;
7531;SDS011;3807;49.030;8.714;2023-06-10T01:39:12;5.85;;;5.28;;
7531;SDS011;3807;49.030;8.714;2023-06-10T01:41:41;7.47;;;4.97;;
7531;SDS011;3807;49.030;8.714;2023-06-10T01:44:06;6.07;;;5.37;;
7531;SDS011;3807;49.030;8.714;2023-06-10T01:46:31;6.10;;;5.50;;
7531;SDS011;3807;49.030;8.714;2023-06-10T01:48:57;6.22;;;5.60;;
7531;SDS011;3807;49.030;8.714;2023-06-10T01:51:22;10.30;;;5.57;;
7531;SDS011;3807;49.030;8.714;2023-06-10T01:53:47;10.60;;;6.03;;
7531;SDS011;3807;49.030;8.714;2023-06-10T01:56:13;6.15;;;5.55;;
7531;SDS011;3807;49.030;8.714;2023-06-10T01:58:42;6.50;;;5.90;;
7531;SDS011;3807;49.030;8.714;2023-06-10T02:01:09;8.88;;;5.95;;
7531;SDS011;3807;49.030;8.714;2023-06-10T02:03:35;6.65;;;5.70;;
7531;SDS011;3807;49.030;8.714;2023-06-10T02:06:00;8.88;;;5.85;;
7531;SDS011;3807;49.030;8.714;2023-06-10T02:08:26;8.05;;;5.78;;
7531;SDS011;3807;49.030;8.714;2023-06-10T02:10:52;6.57;;;5.43;;
7531;SDS011;3807;49.030;8.714;2023-06-10T02:13:18;7.85;;;5.37;;
7531;SDS011;3807;49.030;8.714;2023-06-10T02:15:43;6.50;;;5.65;;
7531;SDS011;3807;49.030;8.714;2023-06-10T02:18:09;7.15;;;5.43;;
7531;SDS011;3807;49.030;8.714;2023-06-10T02:20:36;9.23;;;5.62;;
7531;SDS011;3807;49.030;8.714;2023-06-10T02:23:05;8.07;;;5.85;;
7531;SDS011;3807;49.030;8.714;2023-06-10T02:25:30;8.80;;;5.90;;
7531;SDS011;3807;49.030;8.714;2023-06-10T02:27:56;6.62;;;5.43;;
7531;SDS011;3807;49.030;8.714;2023-06-10T02:30:21;6.12;;;5.50;;
7531;SDS011;3807;49.030;8.714;2023-06-10T02:32:46;8.10;;;5.72;;
7531;SDS011;3807;49.030;8.714;2023-06-10T02:35:12;8.05;;;5.37;;
7531;SDS011;3807;49.030;8.714;2023-06-10T02:37:38;7.07;;;5.20;;
7531;SDS011;3807;49.030;8.714;2023-06-10T02:40:04;6.05;;;5.45;;
7531;SDS011;3807;49.030;8.714;2023-06-10T02:42:31;6.70;;;5.47;;
7531;SDS011;3807;49.030;8.714;2023-06-10T02:44:56;6.85;;;5.78;;
7531;SDS011;3807;49.030;8.714;2023-06-10T02:47:21;7.68;;;5.40;;
7531;SDS011;3807;49.030;8.714;2023-06-10T02:49:47;5.97;;;5.35;;
7531;SDS011;3807;49.030;8.714;2023-06-10T02:52:12;7.37;;;5.57;;
7531;SDS011;3807;49.030;8.714;2023-06-10T02:54:37;6.35;;;5.35;;
7531;SDS011;3807;49.030;8.714;2023-06-10T02:57:03;8.30;;;5.18;;
7531;SDS011;3807;49.030;8.714;2023-06-10T02:59:28;9.38;;;5.78;;
7531;SDS011;3807;49.030;8.714;2023-06-10T03:01:54;5.62;;;5.12;;
7531;SDS011;3807;49.030;8.714;2023-06-10T03:04:19;5.50;;;5.00;;
7531;SDS011;3807;49.030;8.714;2023-06-10T03:06:45;7.60;;;5.30;;
7531;SDS011;3807;49.030;8.714;2023-06-10T03:09:12;8.35;;;5.45;;
7531;SDS011;3807;49.030;8.714;2023-06-10T03:11:38;7.18;;;5.93;;
7531;SDS011;3807;49.030;8.714;2023-06-10T03:14:04;6.00;;;5.35;;
7531;SDS011;3807;49.030;8.714;2023-06-10T03:16:29;7.55;;;5.50;;
7531;SDS011;3807;49.030;8.714;2023-06-10T03:18:56;7.32;;;5.78;;
7531;SDS011;3807;49.030;8.714;2023-06-10T03:21:21;6.75;;;5.75;;
7531;SDS011;3807;49.030;8.714;2023-06-10T03:23:47;8.95;;;5.95;;
7531;SDS011;3807;49.030;8.714;2023-06-10T03:26:12;8.85;;;5.97;;
7531;SDS011;3807;49.030;8.714;2023-06-10T03:28:39;8.20;;;6.55;;
7531;SDS011;3807;49.030;8.714;2023-06-10T03:31:04;6.07;;;5.47;;
7531;SDS011;3807;49.030;8.714;2023-06-10T03:33:30;6.22;;;5.30;;
7531;SDS011;3807;49.030;8.714;2023-06-10T03:35:56;6.22;;;5.62;;
7531;SDS011;3807;49.030;8.714;2023-06-10T03:38:21;7.30;;;5.62;;
7531;SDS011;3807;49.030;8.714;2023-06-10T03:40:47;6.53;;;5.82;;
7531;SDS011;3807;49.030;8.714;2023-06-10T03:43:12;6.85;;;5.37;;
7531;SDS011;3807;49.030;8.714;2023-06-10T03:45:37;7.45;;;5.78;;
7531;SDS011;3807;49.030;8.714;2023-06-10T03:48:03;6.60;;;5.90;;
7531;SDS011;3807;49.030;8.714;2023-06-10T03:50:29;8.70;;;5.82;;
7531;SDS011;3807;49.030;8.714;2023-06-10T03:52:55;9.18;;;6.45;;
7531;SDS011;3807;49.030;8.714;2023-06-10T03:55:20;9.98;;;6.50;;
7531;SDS011;3807;49.030;8.714;2023-06-10T03:57:46;10.85;;;7.15;;
7531;SDS011;3807;49.030;8.714;2023-06-10T04:00:13;7.35;;;6.50;;
7531;SDS011;3807;49.030;8.714;2023-06-10T04:02:40;7.70;;;6.55;;
7531;SDS011;3807;49.030;8.714;2023-06-10T04:05:17;9.38;;;6.05;;
7531;SDS011;3807;49.030;8.714;2023-06-10T04:07:44;7.40;;;5.90;;
7531;SDS011;3807;49.030;8.714;2023-06-10T04:10:09;8.13;;;6.13;;
7531;SDS011;3807;49.030;8.714;2023-06-10T04:12:36;6.40;;;5.57;;
7531;SDS011;3807;49.030;8.714;2023-06-10T04:15:02;6.55;;;5.85;;
7531;SDS011;3807;49.030;8.714;2023-06-10T04:17:28;6.00;;;5.32;;
7531;SDS011;3807;49.030;8.714;2023-06-10T04:19:53;7.83;;;5.87;;
7531;SDS011;3807;49.030;8.714;2023-06-10T04:22:20;6.87;;;5.33;;
7531;SDS011;3807;49.030;8.714;2023-06-10T04:24:45;8.53;;;5.40;;
7531;SDS011;3807;49.030;8.714;2023-06-10T04:27:10;5.30;;;4.80;;
7531;SDS011;3807;49.030;8.714;2023-06-10T04:29:36;8.17;;;4.97;;
7531;SDS011;3807;49.030;8.714;2023-06-10T04:32:01;6.73;;;5.70;;
7531;SDS011;3807;49.030;8.714;2023-06-10T04:34:27;6.37;;;5.40;;
7531;SDS011;3807;49.030;8.714;2023-06-10T04:36:53;7.43;;;5.73;;
7531;SDS011;3807;49.030;8.714;2023-06-10T04:39:18;5.80;;;5.17;;
7531;SDS011;3807;49.030;8.714;2023-06-10T04:41:44;7.17;;;5.77;;
7531;SDS011;3807;49.030;8.714;2023-06-10T04:44:10;5.73;;;5.07;;
7531;SDS011;3807;49.030;8.714;2023-06-10T04:46:35;6.47;;;5.10;;
7531;SDS011;3807;49.030;8.714;2023-06-10T04:49:01;7.53;;;4.83;;
7531;SDS011;3807;49.030;8.714;2023-06-10T04:51:27;6.28;;;4.87;;
7531;SDS011;3807;49.030;8.714;2023-06-10T04:53:53;7.87;;;5.70;;
7531;SDS011;3807;49.030;8.714;2023-06-10T04:56:18;5.30;;;4.80;;
7531;SDS011;3807;49.030;8.714;2023-06-10T04:58:45;6.83;;;5.40;;
7531;SDS011;3807;49.030;8.714;2023-06-10T05:01:10;7.03;;;5.13;;
7531;SDS011;3807;49.030;8.714;2023-06-10T05:03:36;7.00;;;5.30;;
7531;SDS011;3807;49.030;8.714;2023-06-10T05:06:01;6.30;;;4.70;;
7531;SDS011;3807;49.030;8.714;2023-06-10T05:08:27;5.80;;;5.20;;
7531;SDS011;3807;49.030;8.714;2023-06-10T05:10:52;7.37;;;5.47;;
7531;SDS011;3807;49.030;8.714;2023-06-10T05:13:17;6.40;;;4.90;;
7531;SDS011;3807;49.030;8.714;2023-06-10T05:15:43;8.53;;;5.27;;
7531;SDS011;3807;49.030;8.714;2023-06-10T05:18:09;6.03;;;5.13;;
7531;SDS011;3807;49.030;8.714;2023-06-10T05:20:36;8.20;;;5.57;;
7531;SDS011;3807;49.030;8.714;2023-06-10T05:23:01;6.73;;;4.87;;
7531;SDS011;3807;49.030;8.714;2023-06-10T05:25:28;5.27;;;4.27;;
7531;SDS011;3807;49.030;8.714;2023-06-10T05:27:55;8.63;;;4.83;;
7531;SDS011;3807;49.030;8.714;2023-06-10T05:30:21;6.20;;;4.40;;
7531;SDS011;3807;49.030;8.714;2023-06-10T05:32:46;6.20;;;4.77;;
7531;SDS011;3807;49.030;8.714;2023-06-10T05:35:11;5.00;;;4.33;;
7531;SDS011;3807;49.030;8.714;2023-06-10T05:37:37;8.33;;;4.37;;
7531;SDS011;3807;49.030;8.714;2023-06-10T05:40:02;5.83;;;4.70;;
7531;SDS011;3807;49.030;8.714;2023-06-10T05:42:29;8.90;;;5.07;;
7531;SDS011;3807;49.030;8.714;2023-06-10T05:44:54;6.20;;;4.87;;
7531;SDS011;3807;49.030;8.714;2023-06-10T05:47:20;5.30;;;4.80;;
7531;SDS011;3807;49.030;8.714;2023-06-10T05:49:45;6.07;;;4.70;;
7531;SDS011;3807;49.030;8.714;2023-06-10T05:52:13;7.37;;;4.90;;
7531;SDS011;3807;49.030;8.714;2023-06-10T05:54:38;5.43;;;4.83;;
7531;SDS011;3807;49.030;8.714;2023-06-10T05:57:04;9.40;;;4.90;;
7531;SDS011;3807;49.030;8.714;2023-06-10T05:59:30;8.33;;;5.30;;
7531;SDS011;3807;49.030;8.714;2023-06-10T06:01:56;7.23;;;4.87;;
7531;SDS011;3807;49.030;8.714;2023-06-10T06:04:21;5.60;;;4.90;;
7531;SDS011;3807;49.030;8.714;2023-06-10T06:06:46;5.57;;;4.40;;
7531;SDS011;3807;49.030;8.714;2023-06-10T06:09:11;5.17;;;4.63;;
7531;SDS011;3807;49.030;8.714;2023-06-10T06:11:37;6.27;;;4.20;;
7531;SDS011;3807;49.030;8.714;2023-06-10T06:14:03;5.20;;;4.70;;
7531;SDS011;3807;49.030;8.714;2023-06-10T06:16:28;4.77;;;4.23;;
7531;SDS011;3807;49.030;8.714;2023-06-10T06:18:53;4.47;;;4.03;;
7531;SDS011;3807;49.030;8.714;2023-06-10T06:21:19;5.67;;;4.63;;
7531;SDS011;3807;49.030;8.714;2023-06-10T06:23:44;4.83;;;4.30;;
7531;SDS011;3807;49.030;8.714;2023-06-10T06:26:09;5.33;;;4.50;;
7531;SDS011;3807;49.030;8.714;2023-06-10T06:28:35;5.40;;;4.27;;
7531;SDS011;3807;49.030;8.714;2023-06-10T06:31:00;4.80;;;4.30;;
7531;SDS011;3807;49.030;8.714;2023-06-10T06:33:26;4.63;;;4.20;;
7531;SDS011;3807;49.030;8.714;2023-06-10T06:35:51;8.00;;;5.00;;
7531;SDS011;3807;49.030;8.714;2023-06-10T06:38:16;5.27;;;4.77;;
7531;SDS011;3807;49.030;8.714;2023-06-10T06:40:42;8.00;;;4.70;;
7531;SDS011;3807;49.030;8.714;2023-06-10T06:43:07;4.70;;;4.20;;
7531;SDS011;3807;49.030;8.714;2023-06-10T06:45:33;4.77;;;4.03;;
7531;SDS011;3807;49.030;8.714;2023-06-10T06:47:58;6.13;;;4.70;;
7531;SDS011;3807;49.030;8.714;2023-06-10T06:50:24;8.67;;;4.80;;
7531;SDS011;3807;49.030;8.714;2023-06-10T06:52:49;5.70;;;4.90;;
7531;SDS011;3807;49.030;8.714;2023-06-10T06:55:15;6.53;;;5.07;;
7531;SDS011;3807;49.030;8.714;2023-06-10T06:57:40;7.10;;;4.82;;
7531;SDS011;3807;49.030;8.714;2023-06-10T07:00:06;7.23;;;4.80;;
7531;SDS011;3807;49.030;8.714;2023-06-10T07:02:33;7.73;;;4.57;;
7531;SDS011;3807;49.030;8.714;2023-06-10T07:04:58;5.78;;;4.62;;
7531;SDS011;3807;49.030;8.714;2023-06-10T07:07:24;4.82;;;4.40;;
7531;SDS011;3807;49.030;8.714;2023-06-10T07:09:49;5.43;;;4.80;;
7531;SDS011;3807;49.030;8.714;2023-06-10T07:12:15;5.87;;;4.93;;
7531;SDS011;3807;49.030;8.714;2023-06-10T07:14:40;5.00;;;4.50;;
7531;SDS011;3807;49.030;8.714;2023-06-10T07:17:05;6.10;;;5.00;;
7531;SDS011;3807;49.030;8.714;2023-06-10T07:19:31;5.37;;;4.60;;
7531;SDS011;3807;49.030;8.714;2023-06-10T07:21:56;4.93;;;4.43;;
7531;SDS011;3807;49.030;8.714;2023-06-10T07:24:21;5.25;;;4.35;;
7531;SDS011;3807;49.030;8.714;2023-06-10T07:26:47;6.72;;;4.15;;
7531;SDS011;3807;49.030;8.714;2023-06-10T07:29:12;5.53;;;4.20;;
7531;SDS011;3807;49.030;8.714;2023-06-10T07:31:37;5.90;;;4.47;;
7531;SDS011;3807;49.030;8.714;2023-06-10T07:34:03;6.07;;;4.43;;
7531;SDS011;3807;49.030;8.714;2023-06-10T07:36:28;7.15;;;4.72;;
7531;SDS011;3807;49.030;8.714;2023-06-10T07:38:54;7.43;;;5.10;;
7531;SDS011;3807;49.030;8.714;2023-06-10T07:41:20;5.87;;;4.40;;
7531;SDS011;3807;49.030;8.714;2023-06-10T07:43:45;5.43;;;4.85;;
7531;SDS011;3807;49.030;8.714;2023-06-10T07:46:11;5.05;;;4.55;;
7531;SDS011;3807;49.030;8.714;2023-06-10T07:48:36;4.93;;;4.43;;
7531;SDS011;3807;49.030;8.714;2023-06-10T07:51:02;5.03;;;4.40;;
7531;SDS011;3807;49.030;8.714;2023-06-10T07:53:27;6.75;;;4.28;;
7531;SDS011;3807;49.030;8.714;2023-06-10T07:55:52;4.68;;;4.28;;
7531;SDS011;3807;49.030;8.714;2023-06-10T07:58:18;7.40;;;4.37;;
7531;SDS011;3807;49.030;8.714;2023-06-10T08:00:43;4.95;;;4.45;;
7531;SDS011;3807;49.030;8.714;2023-06-10T08:03:09;5.07;;;4.57;;
7531;SDS011;3807;49.030;8.714;2023-06-10T08:05:34;4.55;;;4.07;;
7531;SDS011;3807;49.030;8.714;2023-06-10T08:07:59;6.07;;;5.07;;
7531;SDS011;3807;49.030;8.714;2023-06-10T08:10:25;6.93;;;4.68;;
7531;SDS011;3807;49.030;8.714;2023-06-10T08:12:50;5.82;;;4.47;;
7531;SDS011;3807;49.030;8.714;2023-06-10T08:15:15;5.32;;;4.30;;
7531;SDS011;3807;49.030;8.714;2023-06-10T08:17:41;6.50;;;4.80;;
7531;SDS011;3807;49.030;8.714;2023-06-10T08:20:06;6.90;;;4.60;;
7531;SDS011;3807;49.030;8.714;2023-06-10T08:22:32;5.00;;;4.50;;
7531;SDS011;3807;49.030;8.714;2023-06-10T08:24:58;5.18;;;4.43;;
7531;SDS011;3807;49.030;8.714;2023-06-10T08:27:24;9.77;;;4.85;;
7531;SDS011;3807;49.030;8.714;2023-06-10T08:29:49;4.95;;;4.32;;
7531;SDS011;3807;49.030;8.714;2023-06-10T08:32:15;7.03;;;4.53;;
7531;SDS011;3807;49.030;8.714;2023-06-10T08:34:41;6.05;;;4.53;;
7531;SDS011;3807;49.030;8.714;2023-06-10T08:37:06;4.85;;;4.35;;
7531;SDS011;3807;49.030;8.714;2023-06-10T08:39:31;4.70;;;4.18;;
7531;SDS011;3807;49.030;8.714;2023-06-10T08:42:43;7.07;;;4.15;;
7531;SDS011;3807;49.030;8.714;2023-06-10T08:44:58;4.78;;;4.28;;
7531;SDS011;3807;49.030;8.714;2023-06-10T08:47:26;4.95;;;4.50;;
7531;SDS011;3807;49.030;8.714;2023-06-10T08:49:56;5.62;;;4.65;;
7531;SDS011;3807;49.030;8.714;2023-06-10T08:52:28;4.87;;;4.32;;
7531;SDS011;3807;49.030;8.714;2023-06-10T08:54:59;4.47;;;4.07;;
7531;SDS011;3807;49.030;8.714;2023-06-10T08:57:27;5.57;;;4.20;;
7531;SDS011;3807;49.030;8.714;2023-06-10T08:59:56;5.82;;;4.43;;
7531;SDS011;3807;49.030;8.714;2023-06-10T09:02:22;6.00;;;4.55;;
7531;SDS011;3807;49.030;8.714;2023-06-10T09:04:48;5.65;;;4.70;;
7531;SDS011;3807;49.030;8.714;2023-06-10T09:07:15;8.95;;;4.47;;
7531;SDS011;3807;49.030;8.714;2023-06-10T09:09:44;5.87;;;4.65;;
7531;SDS011;3807;49.030;8.714;2023-06-10T09:12:10;7.00;;;5.25;;
7531;SDS011;3807;49.030;8.714;2023-06-10T09:14:37;5.22;;;4.55;;
7531;SDS011;3807;49.030;8.714;2023-06-10T09:17:03;6.45;;;4.65;;
7531;SDS011;3807;49.030;8.714;2023-06-10T09:19:28;8.25;;;4.95;;
7531;SDS011;3807;49.030;8.714;2023-06-10T09:21:54;5.78;;;5.18;;
7531;SDS011;3807;49.030;8.714;2023-06-10T09:24:23;5.32;;;4.53;;
7531;SDS011;3807;49.030;8.714;2023-06-10T09:26:49;6.53;;;4.68;;
7531;SDS011;3807;49.030;8.714;2023-06-10T09:29:15;5.60;;;4.28;;
7531;SDS011;3807;49.030;8.714;2023-06-10T09:31:41;5.25;;;3.72;;
7531;SDS011;3807;49.030;8.714;2023-06-10T09:34:12;5.93;;;4.20;;
7531;SDS011;3807;49.030;8.714;2023-06-10T09:36:40;9.18;;;4.68;;
7531;SDS011;3807;49.030;8.714;2023-06-10T09:39:13;4.78;;;4.00;;
7531;SDS011;3807;49.030;8.714;2023-06-10T09:41:41;5.55;;;4.25;;
7531;SDS011;3807;49.030;8.714;2023-06-10T09:44:17;8.48;;;4.65;;
7531;SDS011;3807;49.030;8.714;2023-06-10T09:46:49;5.80;;;4.28;;
7531;SDS011;3807;49.030;8.714;2023-06-10T09:49:19;4.80;;;4.20;;
7531;SDS011;3807;49.030;8.714;2023-06-10T09:51:54;5.90;;;4.47;;
7531;SDS011;3807;49.030;8.714;2023-06-10T09:54:20;5.43;;;4.12;;
7531;SDS011;3807;49.030;8.714;2023-06-10T09:56:49;4.53;;;4.00;;
7531;SDS011;3807;49.030;8.714;2023-06-10T09:59:16;5.82;;;4.28;;
7531;SDS011;3807;49.030;8.714;2023-06-10T10:01:55;5.85;;;4.20;;
7531;SDS011;3807;49.030;8.714;2023-06-10T10:04:24;4.80;;;4.30;;
7531;SDS011;3807;49.030;8.714;2023-06-10T10:06:50;4.93;;;4.25;;
7531;SDS011;3807;49.030;8.714;2023-06-10T10:09:15;7.50;;;4.95;;
7531;SDS011;3807;49.030;8.714;2023-06-10T10:11:41;5.60;;;4.60;;
7531;SDS011;3807;49.030;8.714;2023-06-10T10:14:08;5.82;;;4.03;;
7531;SDS011;3807;49.030;8.714;2023-06-10T10:16:37;5.10;;;4.60;;
7531;SDS011;3807;49.030;8.714;2023-06-10T10:19:18;4.80;;;4.03;;
7531;SDS011;3807;49.030;8.714;2023-06-10T10:22:01;4.65;;;4.15;;
7531;SDS011;3807;49.030;8.714;2023-06-10T10:24:32;5.32;;;4.55;;
7531;SDS011;3807;49.030;8.714;2023-06-10T10:27:01;5.62;;;5.03;;
7531;SDS011;3807;49.030;8.714;2023-06-10T10:29:37;4.82;;;4.32;;
7531;SDS011;3807;49.030;8.714;2023-06-10T10:32:04;4.80;;;4.22;;
7531;SDS011;3807;49.030;8.714;2023-06-10T10:34:35;5.40;;;4.22;;
7531;SDS011;3807;49.030;8.714;2023-06-10T10:37:08;6.97;;;4.70;;
7531;SDS011;3807;49.030;8.714;2023-06-10T10:39:34;7.95;;;4.68;;
7531;SDS011;3807;49.030;8.714;2023-06-10T10:42:01;4.80;;;3.92;;
7531;SDS011;3807;49.030;8.714;2023-06-10T10:44:28;5.93;;;3.95;;
7531;SDS011;3807;49.030;8.714;2023-06-10T10:46:54;10.02;;;4.50;;
7531;SDS011;3807;49.030;8.714;2023-06-10T10:49:21;5.57;;;4.28;;
7531;SDS011;3807;49.030;8.714;2023-06-10T10:51:55;4.75;;;4.15;;
7531;SDS011;3807;49.030;8.714;2023-06-10T10:54:30;6.70;;;4.37;;
7531;SDS011;3807;49.030;8.714;2023-06-10T11:05:09;4.85;;;4.30;;
7531;SDS011;3807;49.030;8.714;2023-06-10T11:07:36;4.65;;;4.25;;
7531;SDS011;3807;49.030;8.714;2023-06-10T11:10:03;6.68;;;4.78;;
7531;SDS011;3807;49.030;8.714;2023-06-10T11:12:50;5.20;;;4.68;;
7531;SDS011;3807;49.030;8.714;2023-06-10T11:15:27;4.40;;;4.00;;
7531;SDS011;3807;49.030;8.714;2023-06-10T11:20:56;4.50;;;4.10;;
7531;SDS011;3807;49.030;8.714;2023-06-10T11:31:20;4.65;;;4.15;;
7531;SDS011;3807;49.030;8.714;2023-06-10T11:33:48;4.28;;;3.65;;
7531;SDS011;3807;49.030;8.714;2023-06-10T11:36:17;4.80;;;4.28;;
7531;SDS011;3807;49.030;8.714;2023-06-10T11:38:42;5.45;;;3.72;;
7531;SDS011;3807;49.030;8.714;2023-06-10T11:41:08;3.87;;;3.47;;
7531;SDS011;3807;49.030;8.714;2023-06-10T11:43:36;4.05;;;3.60;;
7531;SDS011;3807;49.030;8.714;2023-06-10T11:46:05;4.70;;;3.72;;
7531;SDS011;3807;49.030;8.714;2023-06-10T11:48:33;4.30;;;3.90;;
7531;SDS011;3807;49.030;8.714;2023-06-10T11:50:58;5.32;;;4.30;;
7531;SDS011;3807;49.030;8.714;2023-06-10T11:53:24;5.60;;;3.72;;
7531;SDS011;3807;49.030;8.714;2023-06-10T11:55:49;3.92;;;3.62;;
7531;SDS011;3807;49.030;8.714;2023-06-10T11:58:19;4.50;;;3.65;;
7531;SDS011;3807;49.030;8.714;2023-06-10T12:00:52;4.68;;;4.00;;
7531;SDS011;3807;49.030;8.714;2023-06-10T12:03:19;4.18;;;3.78;;
7531;SDS011;3807;49.030;8.714;2023-06-10T12:05:58;4.10;;;3.70;;
7531;SDS011;3807;49.030;8.714;2023-06-10T12:08:25;4.50;;;3.55;;
7531;SDS011;3807;49.030;8.714;2023-06-10T12:10:51;4.00;;;3.53;;
7531;SDS011;3807;49.030;8.714;2023-06-10T12:13:17;5.00;;;3.22;;
7531;SDS011;3807;49.030;8.714;2023-06-10T12:15:45;4.60;;;3.30;;
7531;SDS011;3807;49.030;8.714;2023-06-10T12:18:23;5.12;;;3.70;;
7531;SDS011;3807;49.030;8.714;2023-06-10T12:20:49;6.25;;;3.45;;
7531;SDS011;3807;49.030;8.714;2023-06-10T12:23:16;3.83;;;3.40;;
7531;SDS011;3807;49.030;8.714;2023-06-10T12:25:54;3.85;;;3.50;;
7531;SDS011;3807;49.030;8.714;2023-06-10T12:28:21;4.40;;;3.10;;
7531;SDS011;3807;49.030;8.714;2023-06-10T12:30:50;4.07;;;3.45;;
7531;SDS011;3807;49.030;8.714;2023-06-10T12:33:16;3.83;;;3.53;;
7531;SDS011;3807;49.030;8.714;2023-06-10T12:35:51;5.25;;;3.55;;
7531;SDS011;3807;49.030;8.714;2023-06-10T12:38:24;3.75;;;3.45;;
7531;SDS011;3807;49.030;8.714;2023-06-10T12:40:52;4.78;;;3.67;;
7531;SDS011;3807;49.030;8.714;2023-06-10T12:43:21;3.83;;;3.35;;
7531;SDS011;3807;49.030;8.714;2023-06-10T12:45:47;4.00;;;3.40;;
7531;SDS011;3807;49.030;8.714;2023-06-10T12:50:50;6.78;;;3.53;;
7531;SDS011;3807;49.030;8.714;2023-06-10T12:53:25;4.30;;;3.90;;
7531;SDS011;3807;49.030;8.714;2023-06-10T12:55:53;4.62;;;3.78;;
7531;SDS011;3807;49.030;8.714;2023-06-10T12:58:19;4.90;;;3.78;;
7531;SDS011;3807;49.030;8.714;2023-06-10T13:00:45;6.70;;;3.22;;
7531;SDS011;3807;49.030;8.714;2023-06-10T13:03:11;8.45;;;3.35;;
7531;SDS011;3807;49.030;8.714;2023-06-10T13:05:37;3.70;;;3.33;;
7531;SDS011;3807;49.030;8.714;2023-06-10T13:08:04;4.35;;;3.78;;
7531;SDS011;3807;49.030;8.714;2023-06-10T13:10:30;3.62;;;3.33;;
7531;SDS011;3807;49.030;8.714;2023-06-10T13:12:55;3.87;;;3.35;;
7531;SDS011;3807;49.030;8.714;2023-06-10T13:15:21;5.07;;;3.37;;
7531;SDS011;3807;49.030;8.714;2023-06-10T13:17:46;3.60;;;3.30;;
7531;SDS011;3807;49.030;8.714;2023-06-10T13:20:14;3.70;;;3.37;;
7531;SDS011;3807;49.030;8.714;2023-06-10T13:22:41;4.40;;;3.12;;
7531;SDS011;3807;49.030;8.714;2023-06-10T13:25:07;4.35;;;3.17;;
7531;SDS011;3807;49.030;8.714;2023-06-10T13:27:33;3.33;;;3.00;;
7531;SDS011;3807;49.030;8.714;2023-06-10T13:29:59;3.33;;;3.03;;
7531;SDS011;3807;49.030;8.714;2023-06-10T13:32:24;4.40;;;3.25;;
7531;SDS011;3807;49.030;8.714;2023-06-10T13:34:50;5.12;;;3.47;;
7531;SDS011;3807;49.030;8.714;2023-06-10T13:37:15;3.20;;;2.90;;
7531;SDS011;3807;49.030;8.714;2023-06-10T13:39:44;3.83;;;3.22;;
7531;SDS011;3807;49.030;8.714;2023-06-10T13:42:12;4.22;;;2.97;;
7531;SDS011;3807;49.030;8.714;2023-06-10T13:44:37;6.75;;;3.40;;
7531;SDS011;3807;49.030;8.714;2023-06-10T13:47:02;3.47;;;3.17;;
7531;SDS011;3807;49.030;8.714;2023-06-10T13:49:28;4.03;;;3.08;;
7531;SDS011;3807;49.030;8.714;2023-06-10T13:51:54;3.67;;;3.12;;
7531;SDS011;3807;49.030;8.714;2023-06-10T13:54:19;3.83;;;3.08;;
7531;SDS011;3807;49.030;8.714;2023-06-10T13:56:46;4.50;;;3.30;;
7531;SDS011;3807;49.030;8.714;2023-06-10T13:59:11;4.43;;;3.25;;
7531;SDS011;3807;49.030;8.714;2023-06-10T14:01:37;3.85;;;3.42;;
7531;SDS011;3807;49.030;8.714;2023-06-10T14:04:02;3.83;;;3.05;;
7531;SDS011;3807;49.030;8.714;2023-06-10T14:06:28;6.32;;;3.95;;
7531;SDS011;3807;49.030;8.714;2023-06-10T14:08:53;3.45;;;3.15;;
7531;SDS011;3807;49.030;8.714;2023-06-10T14:11:21;3.42;;;3.12;;
7531;SDS011;3807;49.030;8.714;2023-06-10T14:13:47;5.15;;;3.37;;
7531;SDS011;3807;49.030;8.714;2023-06-10T14:16:12;3.75;;;3.45;;
7531;SDS011;3807;49.030;8.714;2023-06-10T14:18:37;4.32;;;3.45;;
7531;SDS011;3807;49.030;8.714;2023-06-10T14:21:03;6.00;;;2.90;;
7531;SDS011;3807;49.030;8.714;2023-06-10T14:23:28;3.62;;;2.90;;
7531;SDS011;3807;49.030;8.714;2023-06-10T14:25:54;4.10;;;3.70;;
7531;SDS011;3807;49.030;8.714;2023-06-10T14:28:19;3.90;;;3.45;;
7531;SDS011;3807;49.030;8.714;2023-06-10T14:30:45;5.30;;;3.25;;
7531;SDS011;3807;49.030;8.714;2023-06-10T14:33:10;4.93;;;2.92;;
7531;SDS011;3807;49.030;8.714;2023-06-10T14:35:35;4.57;;;3.20;;
7531;SDS011;3807;49.030;8.714;2023-06-10T14:38:01;3.22;;;2.92;;
7531;SDS011;3807;49.030;8.714;2023-06-10T14:40:26;3.22;;;2.92;;
7531;SDS011;3807;49.030;8.714;2023-06-10T14:42:53;4.37;;;3.50;;
7531;SDS011;3807;49.030;8.714;2023-06-10T14:45:19;3.62;;;3.33;;
7531;SDS011;3807;49.030;8.714;2023-06-10T14:47:44;3.58;;;3.25;;
7531;SDS011;3807;49.030;8.714;2023-06-10T14:50:12;3.10;;;2.90;;
7531;SDS011;3807;49.030;8.714;2023-06-10T14:52:37;3.90;;;3.17;;
7531;SDS011;3807;49.030;8.714;2023-06-10T14:55:02;3.45;;;3.03;;
7531;SDS011;3807;49.030;8.714;2023-06-10T14:57:28;3.50;;;3.20;;
7531;SDS011;3807;49.030;8.714;2023-06-10T14:59:53;2.90;;;2.70;;
7531;SDS011;3807;49.030;8.714;2023-06-10T15:02:20;3.05;;;2.85;;
7531;SDS011;3807;49.030;8.714;2023-06-10T15:04:45;3.47;;;2.87;;
7531;SDS011;3807;49.030;8.714;2023-06-10T15:07:11;3.55;;;3.12;;
7531;SDS011;3807;49.030;8.714;2023-06-10T15:09:36;3.15;;;2.85;;
7531;SDS011;3807;49.030;8.714;2023-06-10T15:12:02;9.57;;;4.22;;
7531;SDS011;3807;49.030;8.714;2023-06-10T15:14:28;4.62;;;3.70;;
7531;SDS011;3807;49.030;8.714;2023-06-10T15:16:54;8.32;;;3.60;;
7531;SDS011;3807;49.030;8.714;2023-06-10T15:19:20;3.42;;;3.12;;
7531;SDS011;3807;49.030;8.714;2023-06-10T15:21:46;3.65;;;2.80;;
7531;SDS011;3807;49.030;8.714;2023-06-10T15:24:11;3.30;;;3.00;;
7531;SDS011;3807;49.030;8.714;2023-06-10T15:26:37;4.62;;;3.00;;
7531;SDS011;3807;49.030;8.714;2023-06-10T15:29:02;3.17;;;2.70;;
7531;SDS011;3807;49.030;8.714;2023-06-10T15:31:29;3.30;;;3.00;;
7531;SDS011;3807;49.030;8.714;2023-06-10T15:33:56;3.33;;;2.97;;
7531;SDS011;3807;49.030;8.714;2023-06-10T15:36:22;3.28;;;2.97;;
7531;SDS011;3807;49.030;8.714;2023-06-10T15:38:47;5.82;;;2.85;;
7531;SDS011;3807;49.030;8.714;2023-06-10T15:41:13;3.42;;;2.97;;